createdAt,value
2018-02-21T00:01:55.263Z,69.83
2018-02-21T00:04:01.122Z,73.40
2018-02-21T00:06:06.466Z,71.87
2018-02-21T00:08:11.862Z,67.83
2018-02-21T00:10:18.659Z,69.43
2018-02-21T00:12:28.588Z,66.93
2018-02-21T00:14:36.764Z,66.00
2018-02-21T00:16:42.510Z,62.13
2018-02-21T00:18:47.878Z,61.47
2018-02-21T00:20:55.864Z,60.40
2018-02-21T00:23:02.163Z,61.50
2018-02-21T00:25:09.012Z,61.83
2018-02-21T00:27:14.351Z,60.17
2018-02-21T00:29:20.115Z,61.63
2018-02-21T00:31:25.673Z,60.30
2018-02-21T00:33:31.112Z,58.50
2018-02-21T00:35:45.544Z,60.67
2018-02-21T00:37:51.494Z,60.17
2018-02-21T00:40:01.849Z,60.40
2018-02-21T00:42:09.455Z,57.97
2018-02-21T00:44:14.832Z,57.83
2018-02-21T00:46:20.513Z,56.03
2018-02-21T00:48:26.907Z,59.27
2018-02-21T00:50:33.486Z,62.00
2018-02-21T00:52:41.096Z,59.80
2018-02-21T00:54:47.226Z,59.97
2018-02-21T00:56:53.228Z,62.27
2018-02-21T00:58:59.107Z,60.10
2018-02-21T01:01:05.295Z,62.40
2018-02-21T01:03:11.284Z,58.13
2018-02-21T01:05:16.672Z,60.80
2018-02-21T01:07:23.295Z,60.93
2018-02-21T01:09:29.095Z,59.00
2018-02-21T01:11:34.592Z,60.50
2018-02-21T01:13:43.795Z,59.13
2018-02-21T01:15:52.648Z,58.17
2018-02-21T01:18:03.687Z,57.70
2018-02-21T01:20:11.532Z,57.80
2018-02-21T01:22:19.201Z,56.57
2018-02-21T01:24:27.580Z,55.80
2018-02-21T01:26:33.733Z,57.40
2018-02-21T01:28:39.872Z,56.33
2018-02-21T01:30:45.421Z,54.17
2018-02-21T01:32:51.072Z,55.20
2018-02-21T01:34:57.960Z,55.10
2018-02-21T01:37:03.899Z,52.37
2018-02-21T01:39:09.736Z,53.67
2018-02-21T01:41:15.518Z,56.27
2018-02-21T01:43:21.177Z,52.33
2018-02-21T01:45:27.047Z,54.10
2018-02-21T01:47:33.159Z,53.23
2018-02-21T01:49:40.539Z,50.57
2018-02-21T01:51:47.055Z,54.70
2018-02-21T01:53:52.538Z,55.17
2018-02-21T01:56:02.049Z,53.33
2018-02-21T01:58:08.244Z,51.93
2018-02-21T02:00:13.924Z,53.47
2018-02-21T02:02:19.554Z,53.17
2018-02-21T02:04:26.655Z,52.63
2018-02-21T02:06:33.499Z,54.40
2018-02-21T02:08:38.868Z,55.57
2018-02-21T02:10:44.961Z,54.30
2018-02-21T02:12:50.342Z,54.07
2018-02-21T02:14:58.228Z,54.67
2018-02-21T02:17:04.073Z,51.20
2018-02-21T02:19:10.060Z,52.90
2018-02-21T02:21:15.570Z,53.20
2018-02-21T02:23:20.934Z,52.20
2018-02-21T02:25:26.429Z,48.17
2018-02-21T02:27:32.016Z,50.13
2018-02-21T02:29:37.949Z,50.90
2018-02-21T02:31:43.397Z,53.80
2018-02-21T02:33:50.773Z,50.70
2018-02-21T02:35:58.603Z,49.23
2018-02-21T02:38:04.461Z,45.67
2018-02-21T02:40:10.271Z,48.13
2018-02-21T02:42:16.060Z,48.30
2018-02-21T02:44:21.426Z,44.70
2018-02-21T02:46:27.124Z,46.17
2018-02-21T02:48:32.823Z,45.17
2018-02-21T02:50:38.100Z,46.60
2018-02-21T02:52:43.478Z,43.40
2018-02-21T02:54:49.316Z,44.27
2018-02-21T02:56:54.628Z,45.47
2018-02-21T02:59:02.427Z,43.83
2018-02-21T03:01:08.783Z,44.93
2018-02-21T03:03:14.340Z,44.33
2018-02-21T03:05:20.315Z,43.93
2018-02-21T03:07:25.854Z,43.73
2018-02-21T03:09:32.027Z,43.93
2018-02-21T03:11:37.890Z,45.70
2018-02-21T03:13:43.976Z,43.53
2018-02-21T03:15:49.388Z,46.10
2018-02-21T03:17:55.265Z,43.43
2018-02-21T03:20:01.624Z,42.83
2018-02-21T03:22:06.963Z,41.40
2018-02-21T03:24:12.690Z,40.37
2018-02-21T03:26:18.175Z,40.87
2018-02-21T03:28:23.481Z,41.93
2018-02-21T03:30:29.211Z,42.10
2018-02-21T03:32:35.155Z,41.00
2018-02-21T03:34:40.650Z,42.17
2018-02-21T03:36:46.177Z,39.67
2018-02-21T03:38:52.512Z,41.00
2018-02-21T03:41:00.502Z,40.40
2018-02-21T03:43:07.097Z,41.63
2018-02-21T03:45:12.643Z,40.10
2018-02-21T03:47:18.445Z,43.40
2018-02-21T03:49:24.370Z,42.80
2018-02-21T03:51:29.885Z,39.57
2018-02-21T03:53:35.265Z,41.27
2018-02-21T03:55:41.572Z,42.37
2018-02-21T03:57:47.625Z,40.97
2018-02-21T03:59:53.863Z,41.77
2018-02-21T04:02:02.858Z,40.93
2018-02-21T04:04:08.618Z,40.60
2018-02-21T04:06:14.335Z,41.00
2018-02-21T04:08:19.771Z,39.70
2018-02-21T04:10:25.635Z,40.40
2018-02-21T04:12:31.504Z,41.47
2018-02-21T04:14:36.951Z,40.97
2018-02-21T04:16:43.435Z,37.40
2018-02-21T04:18:49.338Z,37.77
2018-02-21T04:20:55.327Z,38.80
2018-02-21T04:23:00.658Z,38.80
2018-02-21T04:25:06.387Z,40.67
2018-02-21T04:27:12.307Z,37.70
2018-02-21T04:29:18.843Z,38.30
2018-02-21T04:31:24.828Z,41.43
2018-02-21T04:33:30.688Z,38.13
2018-02-21T04:35:36.196Z,39.70
2018-02-21T04:37:42.239Z,38.10
2018-02-21T04:39:47.736Z,38.83
2018-02-21T04:41:53.077Z,39.77
2018-02-21T04:44:00.686Z,38.80
2018-02-21T04:46:06.416Z,37.77
2018-02-21T04:48:12.156Z,38.57
2018-02-21T04:50:17.771Z,41.30
2018-02-21T04:52:23.945Z,39.40
2018-02-21T04:54:30.183Z,39.83
2018-02-21T04:56:36.955Z,41.50
2018-02-21T04:58:43.335Z,39.13
2018-02-21T05:00:49.206Z,41.40
2018-02-21T05:02:56.023Z,40.40
2018-02-21T05:05:02.134Z,40.87
2018-02-21T05:07:08.470Z,40.83
2018-02-21T05:09:14.339Z,40.50
2018-02-21T05:11:19.629Z,39.20
2018-02-21T05:13:25.948Z,39.00
2018-02-21T05:15:31.916Z,38.70
2018-02-21T05:17:37.559Z,39.97
2018-02-21T05:19:43.562Z,40.60
2018-02-21T05:21:49.348Z,39.57
2018-02-21T05:23:56.092Z,38.63
2018-02-21T05:26:02.700Z,40.73
2018-02-21T05:28:08.538Z,37.33
2018-02-21T05:30:14.098Z,39.00
2018-02-21T05:32:19.705Z,38.73
2018-02-21T05:34:25.102Z,37.37
2018-02-21T05:36:30.456Z,40.10
2018-02-21T05:38:36.165Z,40.53
2018-02-21T05:40:42.667Z,37.80
2018-02-21T05:42:48.009Z,39.73
2018-02-21T05:44:53.370Z,40.50
2018-02-21T05:46:59.819Z,40.40
2018-02-21T05:49:05.502Z,41.57
2018-02-21T05:51:11.307Z,38.87
2018-02-21T05:53:16.813Z,41.93
2018-02-21T05:55:22.659Z,39.80
2018-02-21T05:57:28.004Z,42.80
2018-02-21T05:59:33.286Z,43.57
2018-02-21T06:01:38.547Z,42.93
2018-02-21T06:03:44.043Z,44.10
2018-02-21T06:05:49.698Z,43.53
2018-02-21T06:07:55.357Z,45.70
2018-02-21T06:10:01.707Z,44.17
2018-02-21T06:12:07.105Z,43.27
2018-02-21T06:14:12.537Z,44.17
2018-02-21T06:16:18.156Z,44.77
2018-02-21T06:18:23.460Z,44.40
2018-02-21T06:20:29.260Z,41.10
2018-02-21T06:22:35.363Z,43.53
2018-02-21T06:24:40.980Z,44.27
2018-02-21T06:26:46.423Z,40.83
2018-02-21T06:28:51.822Z,42.60
2018-02-21T06:30:59.388Z,44.60
2018-02-21T06:33:05.127Z,41.40
2018-02-21T06:35:10.868Z,42.33
2018-02-21T06:37:16.423Z,45.53
2018-02-21T06:39:23.096Z,42.23
2018-02-21T06:41:29.769Z,38.90
2018-02-21T06:43:35.183Z,44.50
2018-02-21T06:45:41.124Z,44.80
2018-02-21T06:47:47.423Z,41.60
2018-02-21T06:49:53.416Z,42.70
2018-02-21T06:51:59.673Z,133.70
2018-02-21T06:54:05.131Z,328.17
2018-02-21T06:56:11.296Z,340.03
2018-02-21T06:58:18.596Z,487.20
2018-02-21T07:00:24.094Z,674.83
2018-02-21T07:02:36.512Z,846.47
2018-02-21T07:04:42.917Z,693.93
2018-02-21T07:06:49.081Z,659.57
2018-02-21T07:08:54.916Z,609.37
2018-02-21T07:11:00.523Z,687.07
2018-02-21T07:13:05.871Z,737.03
2018-02-21T07:15:11.626Z,361.57
2018-02-21T07:17:17.472Z,251.37
2018-02-21T07:21:33.745Z,105.60
2018-02-21T07:23:39.754Z,79.03
2018-02-21T07:25:45.416Z,58.67
2018-02-21T07:27:51.500Z,57.60
2018-02-21T07:29:57.607Z,51.90
2018-02-21T07:32:03.249Z,48.43
2018-02-21T07:34:08.603Z,48.90
2018-02-21T07:36:14.048Z,49.57
2018-02-21T07:38:19.367Z,49.83
2018-02-21T07:40:25.734Z,354.80
2018-02-21T07:42:31.549Z,342.07
2018-02-21T07:44:36.870Z,158.50
2018-02-21T07:46:43.232Z,893.33
2018-02-21T07:48:48.758Z,708.60
2018-02-21T07:50:54.160Z,879.53
2018-02-21T07:52:59.923Z,732.63
2018-02-21T07:55:12.479Z,730.77
2018-02-21T07:57:18.545Z,840.97
2018-02-21T07:59:23.986Z,926.40
2018-02-21T08:01:29.752Z,975.90
2018-02-21T08:03:34.996Z,882.47
2018-02-21T08:05:40.310Z,699.87
2018-02-21T08:07:46.174Z,860.77
2018-02-21T08:09:51.873Z,810.27
2018-02-21T08:11:59.579Z,855.97
2018-02-21T08:14:05.401Z,986.00
2018-02-21T08:16:11.048Z,888.00
2018-02-21T08:18:16.977Z,615.83
2018-02-21T08:20:22.629Z,496.90
2018-02-21T08:22:28.620Z,713.60
2018-02-21T08:24:34.203Z,331.67
2018-02-21T08:26:41.263Z,617.70
2018-02-21T08:28:46.853Z,857.53
2018-02-21T08:30:52.621Z,229.10
2018-02-21T08:33:01.760Z,130.80
2018-02-21T08:35:08.148Z,999.90
2018-02-21T08:37:13.864Z,999.90
2018-02-21T08:39:19.628Z,567.97
2018-02-21T08:41:25.680Z,888.17
2018-02-21T08:43:31.144Z,999.90
2018-02-21T08:45:37.236Z,999.90
2018-02-21T08:47:42.547Z,933.00
2018-02-21T08:49:48.268Z,484.53
2018-02-21T08:51:54.424Z,288.63
2018-02-21T08:54:01.354Z,375.07
2018-02-21T08:56:06.595Z,999.90
2018-02-21T08:58:13.047Z,999.90
2018-02-21T09:00:18.745Z,574.57
2018-02-21T09:02:24.049Z,304.10
2018-02-21T09:04:29.672Z,387.03
2018-02-21T09:06:35.009Z,695.70
2018-02-21T09:08:43.449Z,551.70
2018-02-21T09:10:49.839Z,265.87
2018-02-21T09:12:55.324Z,170.93
2018-02-21T09:15:02.533Z,482.03
2018-02-21T09:17:08.187Z,137.60
2018-02-21T09:19:13.565Z,85.00
2018-02-21T09:21:19.843Z,70.20
2018-02-21T09:23:25.549Z,56.67
2018-02-21T09:25:30.894Z,54.17
2018-02-21T09:27:38.175Z,66.43
2018-02-21T09:29:50.311Z,47.07
2018-02-21T09:31:56.060Z,49.10
2018-02-21T09:34:01.449Z,48.00
2018-02-21T09:36:08.343Z,811.50
2018-02-21T09:38:20.552Z,841.17
2018-02-21T09:40:25.891Z,141.00
2018-02-21T09:42:31.608Z,59.33
2018-02-21T09:44:37.760Z,399.77
2018-02-21T09:46:43.120Z,297.37
2018-02-21T09:48:48.603Z,862.03
2018-02-21T09:50:55.139Z,169.77
2018-02-21T09:53:02.729Z,887.87
2018-02-21T09:55:08.032Z,105.50
2018-02-21T09:57:14.031Z,891.83
2018-02-21T09:59:23.933Z,119.83
2018-02-21T10:01:29.431Z,85.77
2018-02-21T10:03:35.841Z,62.30
2018-02-21T10:05:41.753Z,172.00
2018-02-21T10:07:47.577Z,58.13
2018-02-21T10:09:53.827Z,59.20
2018-02-21T10:12:00.382Z,54.47
2018-02-21T10:14:06.140Z,49.07
2018-02-21T10:16:11.459Z,152.87
2018-02-21T10:18:17.255Z,623.73
2018-02-21T10:20:22.638Z,808.10
2018-02-21T10:22:28.559Z,158.43
2018-02-21T10:24:34.686Z,639.03
2018-02-21T10:26:40.892Z,225.57
2018-02-21T10:28:46.948Z,591.03
2018-02-21T10:30:53.340Z,319.93
2018-02-21T10:32:58.648Z,489.47
2018-02-21T10:35:05.069Z,591.23
2018-02-21T10:37:10.891Z,925.93
2018-02-21T10:39:21.475Z,476.20
2018-02-21T10:41:28.437Z,138.30
2018-02-21T10:43:34.758Z,113.30
2018-02-21T10:45:40.729Z,418.40
2018-02-21T10:47:46.659Z,764.60
2018-02-21T10:49:52.576Z,188.80
2018-02-21T10:51:58.444Z,289.83
2018-02-21T10:54:04.905Z,702.27
2018-02-21T10:56:11.399Z,258.97
2018-02-21T10:58:17.547Z,123.17
2018-02-21T11:00:26.850Z,108.97
2018-02-21T11:02:34.345Z,999.90
2018-02-21T11:04:40.053Z,109.10
2018-02-21T11:06:45.566Z,73.20
2018-02-21T11:08:50.914Z,72.83
2018-02-21T11:10:56.563Z,67.80
2018-02-21T11:13:02.099Z,61.80
2018-02-21T11:15:08.828Z,604.47
2018-02-21T11:17:14.696Z,771.07
2018-02-21T11:19:20.764Z,377.27
2018-02-21T11:21:26.981Z,129.73
2018-02-21T11:23:33.086Z,108.47
2018-02-21T11:25:39.865Z,722.50
2018-02-21T11:27:45.889Z,243.77
2018-02-21T11:29:52.791Z,113.00
2018-02-21T11:31:58.199Z,941.47
2018-02-21T11:34:03.660Z,394.10
2018-02-21T11:36:09.619Z,686.00
2018-02-21T11:38:15.114Z,225.50
2018-02-21T11:40:20.422Z,265.10
2018-02-21T11:42:26.095Z,653.17
2018-02-21T11:44:31.895Z,281.30
2018-02-21T11:46:37.521Z,418.13
2018-02-21T11:48:44.115Z,210.87
2018-02-21T11:50:52.439Z,803.80
2018-02-21T11:52:58.391Z,126.77
2018-02-21T11:55:04.484Z,713.93
2018-02-21T11:57:10.758Z,311.33
2018-02-21T11:59:16.472Z,875.80
2018-02-21T12:01:23.701Z,531.53
2018-02-21T12:03:29.666Z,660.63
2018-02-21T12:05:36.134Z,693.13
2018-02-21T12:07:42.493Z,912.53
2018-02-21T12:09:49.996Z,273.97
2018-02-21T12:11:56.102Z,167.57
2018-02-21T12:14:02.510Z,119.80
2018-02-21T12:16:08.718Z,77.70
2018-02-21T12:18:14.380Z,65.40
2018-02-21T12:20:20.344Z,59.97
2018-02-21T12:22:25.797Z,57.80
2018-02-21T12:24:32.026Z,291.57
2018-02-21T12:26:39.275Z,582.53
2018-02-21T12:28:45.179Z,710.37
2018-02-21T12:30:50.719Z,511.23
2018-02-21T12:32:57.104Z,481.73
2018-02-21T12:35:03.065Z,611.57
2018-02-21T12:37:08.883Z,552.93
2018-02-21T12:39:18.543Z,527.23
2018-02-21T12:41:53.944Z,544.83
2018-02-21T12:43:59.431Z,540.63
2018-02-21T12:46:05.111Z,593.77
2018-02-21T12:48:10.607Z,665.00
2018-02-21T12:50:16.066Z,537.10
2018-02-21T12:52:21.856Z,760.03
2018-02-21T12:54:27.194Z,689.33
2018-02-21T12:56:33.089Z,507.00
2018-02-21T12:58:38.857Z,450.93
2018-02-21T13:00:45.138Z,458.63
2018-02-21T13:02:51.608Z,713.30
2018-02-21T13:04:59.209Z,289.00
2018-02-21T13:07:04.780Z,480.00
2018-02-21T13:09:10.740Z,557.50
2018-02-21T13:11:16.342Z,375.30
2018-02-21T13:13:21.992Z,286.93
2018-02-21T13:15:27.424Z,197.10
2018-02-21T13:17:33.047Z,157.20
2018-02-21T13:19:38.861Z,108.97
2018-02-21T13:21:44.136Z,90.27
2018-02-21T13:23:49.957Z,65.60
2018-02-21T13:25:55.413Z,438.77
2018-02-21T13:28:01.468Z,167.67
2018-02-21T13:30:06.852Z,111.17
2018-02-21T13:32:13.010Z,964.93
2018-02-21T13:34:18.333Z,650.20
2018-02-21T13:36:24.395Z,316.93
2018-02-21T13:38:30.183Z,223.47
2018-02-21T13:40:35.635Z,481.30
2018-02-21T13:42:41.755Z,761.57
2018-02-21T13:44:48.120Z,779.30
2018-02-21T13:46:56.583Z,197.07
2018-02-21T13:49:03.497Z,152.17
2018-02-21T13:51:10.863Z,218.00
2018-02-21T13:53:17.857Z,441.60
2018-02-21T13:55:23.707Z,193.00
2018-02-21T13:57:29.192Z,549.40
2018-02-21T13:59:34.762Z,410.87
2018-02-21T14:01:40.508Z,343.33
2018-02-21T14:03:46.311Z,265.07
2018-02-21T14:05:53.383Z,809.33
2018-02-21T14:08:00.573Z,251.77
2018-02-21T14:10:06.244Z,723.60
2018-02-21T14:12:12.914Z,999.90
2018-02-21T14:14:32.164Z,614.87
2018-02-21T14:16:38.091Z,999.90
2018-02-21T14:18:44.164Z,695.33
2018-02-21T14:20:50.815Z,996.23
2018-02-21T14:22:57.592Z,418.37
2018-02-21T14:25:03.093Z,326.47
2018-02-21T14:27:10.994Z,521.70
2018-02-21T14:29:16.256Z,359.90
2018-02-21T14:31:22.648Z,305.80
2018-02-21T14:33:28.245Z,432.10
2018-02-21T14:35:33.507Z,732.43
2018-02-21T14:37:38.840Z,546.33
2018-02-21T14:39:44.439Z,283.00
2018-02-21T14:41:49.683Z,206.17
2018-02-21T14:43:55.003Z,145.50
2018-02-21T14:46:02.132Z,113.03
2018-02-21T14:48:07.412Z,999.90
2018-02-21T14:50:12.792Z,232.53
2018-02-21T14:52:23.110Z,927.63
2018-02-21T14:54:28.584Z,128.03
2018-02-21T14:56:34.769Z,112.43
2018-02-21T14:58:40.323Z,98.30
2018-02-21T15:00:45.758Z,249.03
2018-02-21T15:02:51.036Z,552.60
2018-02-21T15:04:56.850Z,483.27
2018-02-21T15:07:02.112Z,188.27
2018-02-21T15:09:08.771Z,596.97
2018-02-21T15:11:14.336Z,173.10
2018-02-21T15:13:19.807Z,91.67
2018-02-21T15:15:25.141Z,72.73
2018-02-21T15:17:30.693Z,63.83
2018-02-21T15:19:35.958Z,55.17
2018-02-21T15:21:41.519Z,56.30
2018-02-21T15:23:47.139Z,50.00
2018-02-21T15:25:52.402Z,49.73
2018-02-21T15:27:57.688Z,47.97
2018-02-21T15:30:03.512Z,46.57
2018-02-21T15:32:08.905Z,48.87
2018-02-21T15:34:14.269Z,41.47
2018-02-21T15:36:20.207Z,47.40
2018-02-21T15:38:25.525Z,43.57
2018-02-21T15:40:32.677Z,44.30
2018-02-21T15:42:38.548Z,40.57
2018-02-21T15:44:43.797Z,40.80
2018-02-21T15:46:49.215Z,41.27
2018-02-21T15:48:54.807Z,33.87
2018-02-21T15:51:00.178Z,36.60
2018-02-21T15:53:05.453Z,33.97
2018-02-21T15:55:12.091Z,35.90
2018-02-21T15:57:17.536Z,33.80
2018-02-21T15:59:23.445Z,33.83
2018-02-21T16:01:31.066Z,36.33
2018-02-21T16:03:36.275Z,37.47
2018-02-21T16:05:41.570Z,33.93
2018-02-21T16:07:47.412Z,36.90
2018-02-21T16:09:53.929Z,37.00
2018-02-21T16:12:03.756Z,35.10
2018-02-21T16:14:10.384Z,35.37
2018-02-21T16:16:15.710Z,35.30
2018-02-21T16:18:21.961Z,34.53
2018-02-21T16:20:27.564Z,36.53
2018-02-21T16:22:32.947Z,32.40
2018-02-21T16:24:38.342Z,35.30
2018-02-21T16:26:43.872Z,34.90
2018-02-21T16:28:49.163Z,35.13
2018-02-21T16:30:55.750Z,36.03
2018-02-21T16:33:01.325Z,35.43
2018-02-21T16:35:06.705Z,34.10
2018-02-21T16:37:12.147Z,32.73
2018-02-21T16:39:17.858Z,32.13
2018-02-21T16:41:23.616Z,31.77
2018-02-21T16:43:28.912Z,31.77
2018-02-21T16:45:34.451Z,33.87
2018-02-21T16:47:39.882Z,34.83
2018-02-21T16:49:45.232Z,33.43
2018-02-21T16:51:50.773Z,32.20
2018-02-21T16:54:00.050Z,33.73
2018-02-21T16:56:05.323Z,30.73
2018-02-21T16:58:10.964Z,31.77
2018-02-21T17:00:16.629Z,31.00
2018-02-21T17:02:21.891Z,30.67
2018-02-21T17:04:27.610Z,32.00
2018-02-21T17:06:32.913Z,32.90
2018-02-21T17:08:38.296Z,32.43
2018-02-21T17:10:43.859Z,30.80
2018-02-21T17:12:49.789Z,30.20
2018-02-21T17:14:55.139Z,30.47
2018-02-21T17:17:00.699Z,30.30
2018-02-21T17:19:06.163Z,32.50
2018-02-21T17:21:11.523Z,30.17
2018-02-21T17:23:17.241Z,31.80
2018-02-21T17:25:22.806Z,29.73
2018-02-21T17:27:28.264Z,27.93
2018-02-21T17:29:33.869Z,28.93
2018-02-21T17:31:39.119Z,29.73
2018-02-21T17:33:46.734Z,29.43
2018-02-21T17:35:52.839Z,29.60
2018-02-21T17:37:58.156Z,30.23
2018-02-21T17:40:03.715Z,28.40
2018-02-21T17:42:09.522Z,27.40
2018-02-21T17:44:15.255Z,27.30
2018-02-21T17:46:20.661Z,25.87
2018-02-21T17:48:26.287Z,27.73
2018-02-21T17:50:31.572Z,26.93
2018-02-21T17:52:38.488Z,26.30
2018-02-21T17:54:44.189Z,25.40
2018-02-21T17:56:55.057Z,25.03
2018-02-21T17:59:09.493Z,25.90
2018-02-21T18:01:16.941Z,25.63
2018-02-21T18:03:24.681Z,26.60
2018-02-21T18:05:35.731Z,27.07
2018-02-21T18:07:43.741Z,25.73
2018-02-21T18:09:49.686Z,25.07
2018-02-21T18:11:55.122Z,25.23
2018-02-21T18:14:01.049Z,24.80
2018-02-21T18:16:11.343Z,24.00
2018-02-21T18:18:17.558Z,25.10
2018-02-21T18:20:23.554Z,25.53
2018-02-21T18:22:29.071Z,24.27
2018-02-21T18:24:34.752Z,24.63
2018-02-21T18:26:40.751Z,24.07
2018-02-21T18:28:47.819Z,25.90
2018-02-21T18:30:54.136Z,25.80
2018-02-21T18:32:59.926Z,25.53
2018-02-21T18:35:05.525Z,24.73
2018-02-21T18:37:11.067Z,24.20
2018-02-21T18:39:16.943Z,24.93
2018-02-21T18:41:22.351Z,24.93
2018-02-21T18:43:27.876Z,24.60
2018-02-21T18:45:33.548Z,24.13
2018-02-21T18:47:39.159Z,24.43
2018-02-21T18:49:44.917Z,22.60
2018-02-21T18:51:50.565Z,23.97
2018-02-21T18:53:55.885Z,22.90
2018-02-21T18:56:01.309Z,23.33
2018-02-21T18:58:06.885Z,22.20
2018-02-21T19:00:12.231Z,23.33
2018-02-21T19:02:17.544Z,24.20
2018-02-21T19:04:23.186Z,22.27
2018-02-21T19:08:38.116Z,23.00
2018-02-21T19:10:43.807Z,23.70
2018-02-21T19:12:49.769Z,23.27
2018-02-21T19:14:55.080Z,22.83
2018-02-21T19:17:00.940Z,22.53
2018-02-21T19:19:06.346Z,22.20
2018-02-21T19:21:12.045Z,23.63
2018-02-21T19:23:18.363Z,22.37
2018-02-21T19:25:24.261Z,23.20
2018-02-21T19:27:29.553Z,22.00
2018-02-21T19:29:35.689Z,22.83
2018-02-21T19:31:41.031Z,23.50
2018-02-21T19:33:46.323Z,22.30
2018-02-21T19:35:51.915Z,22.80
2018-02-21T19:37:57.328Z,23.07
2018-02-21T19:40:02.694Z,22.27
2018-02-21T19:42:08.573Z,21.83
2018-02-21T19:44:14.220Z,22.00
2018-02-21T19:46:20.636Z,22.60
2018-02-21T19:48:26.408Z,23.53
2018-02-21T19:50:31.882Z,22.00
2018-02-21T19:52:37.303Z,22.73
2018-02-21T19:54:43.068Z,21.60
2018-02-21T19:56:48.476Z,22.73
2018-02-21T19:58:53.991Z,21.67
2018-02-21T20:00:59.808Z,22.40
2018-02-21T20:03:05.144Z,22.07
2018-02-21T20:05:10.581Z,21.00
2018-02-21T20:07:16.362Z,21.30
2018-02-21T20:09:21.809Z,21.30
2018-02-21T20:11:27.403Z,22.73
2018-02-21T20:13:33.244Z,22.00
2018-02-21T20:15:39.186Z,22.30
2018-02-21T20:17:44.673Z,22.33
2018-02-21T20:19:50.478Z,23.10
2018-02-21T20:21:55.885Z,22.03
2018-02-21T20:24:01.415Z,23.03
2018-02-21T20:26:07.714Z,22.30
2018-02-21T20:28:13.172Z,21.70
2018-02-21T20:30:19.118Z,22.33
2018-02-21T20:32:25.548Z,23.00
2018-02-21T20:34:30.896Z,25.07
2018-02-21T20:36:36.458Z,22.53
2018-02-21T20:38:42.573Z,23.53
2018-02-21T20:40:47.943Z,23.23
2018-02-21T20:42:53.410Z,23.50
2018-02-21T20:44:59.021Z,21.53
2018-02-21T20:47:04.494Z,23.97
2018-02-21T20:49:10.423Z,22.83
2018-02-21T20:51:16.168Z,22.20
2018-02-21T20:53:21.606Z,23.73
2018-02-21T20:55:30.991Z,22.57
2018-02-21T20:57:37.169Z,22.70
2018-02-21T20:59:43.083Z,23.40
2018-02-21T21:01:48.968Z,23.30
2018-02-21T21:03:56.135Z,22.60
2018-02-21T21:06:02.784Z,23.43
2018-02-21T21:08:10.143Z,23.53
2018-02-21T21:10:20.390Z,23.07
2018-02-21T21:12:27.833Z,22.70
2018-02-21T21:14:34.002Z,23.53
2018-02-21T21:16:41.601Z,21.83
2018-02-21T21:18:51.450Z,24.13
2018-02-21T21:20:59.226Z,25.40
2018-02-21T21:23:05.568Z,25.37
2018-02-21T21:25:13.969Z,26.53
2018-02-21T21:27:21.278Z,26.00
2018-02-21T21:29:27.564Z,24.93
2018-02-21T21:31:33.376Z,23.37
2018-02-21T21:33:40.280Z,23.37
2018-02-21T21:35:47.697Z,24.37
2018-02-21T21:37:53.680Z,23.00
2018-02-21T21:40:05.048Z,23.30
2018-02-21T21:42:10.720Z,23.37
2018-02-21T21:44:18.761Z,23.77
2018-02-21T21:46:24.244Z,24.33
2018-02-21T21:48:31.136Z,24.87
2018-02-21T21:50:36.761Z,24.40
2018-02-21T21:52:42.612Z,23.20
2018-02-21T21:54:48.695Z,22.93
2018-02-21T21:56:54.028Z,24.13
2018-02-21T21:58:59.411Z,24.60
2018-02-21T22:01:05.039Z,23.00
2018-02-21T22:03:11.024Z,22.53
2018-02-21T22:05:16.723Z,24.50
2018-02-21T22:07:22.421Z,25.50
2018-02-21T22:09:27.750Z,24.50
2018-02-21T22:11:33.220Z,23.50
2018-02-21T22:13:39.067Z,23.80
2018-02-21T22:15:44.480Z,22.80
2018-02-21T22:17:50.183Z,23.67
2018-02-21T22:19:57.337Z,24.30
2018-02-21T22:22:02.734Z,24.20
2018-02-21T22:24:08.573Z,22.57
2018-02-21T22:26:14.383Z,24.53
2018-02-21T22:28:19.664Z,25.20
2018-02-21T22:30:24.993Z,22.77
2018-02-21T22:32:31.255Z,23.77
2018-02-21T22:34:37.301Z,22.93
2018-02-21T22:36:43.728Z,24.27
2018-02-21T22:38:49.627Z,23.10
2018-02-21T22:40:56.083Z,23.40
2018-02-21T22:43:01.570Z,25.23
2018-02-21T22:45:07.460Z,23.30
2018-02-21T22:47:12.939Z,24.37
2018-02-21T22:49:18.687Z,23.27
2018-02-21T22:51:24.301Z,23.90
2018-02-21T22:53:30.590Z,23.27
2018-02-21T22:55:36.898Z,23.87
2018-02-21T22:57:43.366Z,22.83
2018-02-21T22:59:49.375Z,22.97
2018-02-21T23:01:56.018Z,467.73
2018-02-21T23:04:02.576Z,310.43
2018-02-21T23:06:08.338Z,199.27
2018-02-21T23:08:14.367Z,228.80
2018-02-21T23:10:22.098Z,70.87
2018-02-21T23:12:28.178Z,241.00
2018-02-21T23:14:33.568Z,543.90
2018-02-21T23:16:40.160Z,515.90
2018-02-21T23:18:46.635Z,685.80
2018-02-21T23:20:51.936Z,754.70
2018-02-21T23:22:59.081Z,685.73
2018-02-21T23:25:05.066Z,490.83
2018-02-21T23:27:11.064Z,288.63
2018-02-21T23:29:17.627Z,450.57
2018-02-21T23:31:23.177Z,650.20
2018-02-21T23:33:28.705Z,596.33
2018-02-21T23:35:34.488Z,469.70
2018-02-21T23:37:40.595Z,114.67
2018-02-21T23:39:46.751Z,810.03
2018-02-21T23:41:52.994Z,183.23
2018-02-21T23:44:00.149Z,761.43
2018-02-21T23:46:05.584Z,847.13
2018-02-21T23:48:11.593Z,787.83
2018-02-21T23:50:17.980Z,908.67
2018-02-21T23:52:24.059Z,915.03
2018-02-21T23:54:30.191Z,620.77
2018-02-21T23:56:36.671Z,858.93
2018-02-21T23:58:42.235Z,941.23
